Time;durP1;ratioP1;P1;durP2;ratioP2;P2;SDS_P1;SDS_P2;PMS_P1;PMS_P2;Temp;Humidity;BMP_temperature;BMP_pressure;BME280_temperature;BME280_humidity;BME280_pressure;Samples;Min_cycle;Max_cycle;Signal;HPM_P1;HPM_P2
2022/10/15 00:00:47;;;;;;;86.00;42.60;;;12.60;99.90;;;;;;5155000;27;20050;-79
2022/10/15 00:03:14;;;;;;;90.15;43.45;;;12.60;99.90;;;;;;5155318;27;20529;-80
2022/10/15 00:05:40;;;;;;;83.35;41.40;;;12.70;99.90;;;;;;5136229;27;20094;-79
2022/10/15 00:08:07;;;;;;;79.85;39.92;;;12.60;99.90;;;;;;5155213;27;20043;-80
2022/10/15 00:10:35;;;;;;;79.22;41.40;;;12.70;99.90;;;;;;5136478;27;20106;-81
2022/10/15 00:13:01;;;;;;;81.97;42.47;;;12.70;99.90;;;;;;5155026;27;20070;-78
2022/10/15 00:15:28;;;;;;;90.88;42.97;;;12.70;99.90;;;;;;5136353;27;20050;-78
2022/10/15 00:17:55;;;;;;;81.65;41.65;;;12.70;99.90;;;;;;5154704;27;20062;-82
2022/10/15 00:20:21;;;;;;;83.07;41.35;;;12.70;99.90;;;;;;5154751;27;20043;-78
2022/10/15 00:22:47;;;;;;;80.63;42.60;;;12.70;99.90;;;;;;5136484;27;20053;-78
2022/10/15 00:25:13;;;;;;;89.75;45.00;;;12.70;99.90;;;;;;5135655;27;20085;-78
2022/10/15 00:27:39;;;;;;;83.90;45.22;;;12.60;99.90;;;;;;5135836;27;20078;-77
2022/10/15 00:30:06;;;;;;;92.45;45.42;;;12.70;99.90;;;;;;5135874;27;20058;-77
2022/10/15 00:32:32;;;;;;;97.50;46.20;;;12.70;99.90;;;;;;5154641;27;20046;-78
2022/10/15 00:34:58;;;;;;;104.47;50.20;;;12.70;99.90;;;;;;5154217;27;20039;-78
2022/10/15 00:37:24;;;;;;;105.07;49.67;;;12.70;99.90;;;;;;5154705;27;20054;-78
2022/10/15 00:39:50;;;;;;;109.25;52.05;;;12.70;99.90;;;;;;5132257;27;20051;-77
2022/10/15 00:42:16;;;;;;;98.20;49.70;;;12.70;99.90;;;;;;5133740;27;20509;-77
2022/10/15 00:44:49;;;;;;;110.72;53.58;;;12.70;99.90;;;;;;5132630;27;20426;-78
2022/10/15 00:47:18;;;;;;;113.32;53.08;;;12.60;99.90;;;;;;5134112;27;20051;-78
2022/10/15 00:50:17;;;;;;;114.07;53.55;;;12.60;99.90;;;;;;5134019;27;20043;-79
2022/10/15 00:52:56;;;;;;;114.07;53.38;;;12.60;99.90;;;;;;5108542;27;20047;-80
2022/10/15 00:55:36;;;;;;;104.03;50.90;;;12.60;99.90;;;;;;5133506;27;20046;-79
2022/10/15 00:58:10;;;;;;;114.53;54.50;;;12.60;99.90;;;;;;5133573;27;20043;-79
2022/10/15 01:00:37;;;;;;;;;;;12.60;99.90;;;;;;5115547;27;20047;-78
2022/10/15 01:03:03;;;;;;;120.63;55.30;;;12.60;99.90;;;;;;5133146;27;20370;-80
2022/10/15 01:05:29;;;;;;;128.35;57.28;;;12.60;99.90;;;;;;5131463;27;20057;-79
2022/10/15 01:07:55;;;;;;;125.80;56.22;;;12.60;99.90;;;;;;5131897;27;20047;-78
2022/10/15 01:10:25;;;;;;;113.57;54.63;;;12.60;99.90;;;;;;5131849;27;20086;-79
2022/10/15 01:13:05;;;;;;;125.57;58.38;;;12.60;99.90;;;;;;5131407;27;20506;-79
2022/10/15 01:16:03;;;;;;;115.18;53.55;;;12.60;99.90;;;;;;5131859;27;20101;-78
2022/10/15 01:18:39;;;;;;;130.52;55.42;;;12.60;99.90;;;;;;5132116;27;20133;-81
2022/10/15 01:21:13;;;;;;;140.02;60.80;;;12.60;99.90;;;;;;5131605;27;20059;-79
2022/10/15 01:23:44;;;;;;;121.88;54.58;;;12.60;99.90;;;;;;5132909;27;20050;-79
2022/10/15 01:26:19;;;;;;;127.25;56.30;;;12.60;99.90;;;;;;5114301;27;20051;-79
2022/10/15 01:29:03;;;;;;;145.07;58.63;;;12.60;99.90;;;;;;5131414;27;20058;-78
2022/10/15 01:31:43;;;;;;;113.10;54.15;;;12.60;99.90;;;;;;5131415;27;20087;-79
2022/10/15 01:34:19;;;;;;;124.97;56.63;;;12.60;99.90;;;;;;5132774;27;20079;-80
2022/10/15 01:37:08;;;;;;;130.50;56.60;;;12.60;99.90;;;;;;5121059;27;20079;-78
2022/10/15 01:40:00;;;;;;;119.40;56.40;;;12.60;99.90;;;;;;5139872;27;20073;-79
2022/10/15 01:42:35;;;;;;;121.35;55.67;;;12.60;99.90;;;;;;5140123;27;20047;-80
2022/10/15 01:45:07;;;;;;;142.07;62.05;;;12.60;99.90;;;;;;5153515;27;20051;-79
2022/10/15 01:47:53;;;;;;;116.57;53.60;;;12.60;99.90;;;;;;5153306;27;20426;-80
2022/10/15 01:50:25;;;;;;;120.13;54.28;;;12.60;99.90;;;;;;5134865;27;20050;-78
2022/10/15 01:52:54;;;;;;;125.05;56.15;;;12.60;99.90;;;;;;5117740;27;20642;-79
2022/10/15 01:55:23;;;;;;;131.90;60.50;;;12.50;99.90;;;;;;5153200;27;20130;-79
2022/10/15 01:57:50;;;;;;;109.43;53.45;;;12.60;99.90;;;;;;5117842;27;20047;-79
2022/10/15 02:00:17;;;;;;;144.15;57.75;;;12.60;99.90;;;;;;5134519;27;20054;-79
2022/10/15 02:02:43;;;;;;;118.28;54.42;;;12.60;99.90;;;;;;5153053;27;20043;-78
2022/10/15 02:05:26;;;;;;;118.07;52.45;;;12.60;99.90;;;;;;5134238;27;20042;-81
2022/10/15 02:08:00;;;;;;;111.18;52.38;;;12.60;99.90;;;;;;5152985;27;20049;-78
2022/10/15 02:10:52;;;;;;;140.13;58.75;;;12.60;99.90;;;;;;5134412;27;20050;-78
2022/10/15 02:13:59;;;;;;;129.98;57.65;;;12.70;99.90;;;;;;5122508;27;20074;-78
2022/10/15 02:16:50;;;;;;;119.63;53.63;;;12.70;99.90;;;;;;5116938;27;20059;-80
2022/10/15 02:19:29;;;;;;;130.98;55.15;;;12.70;99.90;;;;;;5153165;27;20055;-78
2022/10/15 02:22:26;;;;;;;145.60;61.00;;;12.70;99.90;;;;;;5153131;27;20051;-78
2022/10/15 02:25:04;;;;;;;120.88;54.45;;;12.70;99.90;;;;;;5133976;27;20050;-78
2022/10/15 02:27:32;;;;;;;103.05;49.35;;;12.70;99.90;;;;;;5134301;27;20376;-79
2022/10/15 02:30:05;;;;;;;122.45;55.05;;;12.70;99.90;;;;;;5152855;27;20125;-79
2022/10/15 02:32:32;;;;;;;110.03;51.40;;;12.70;99.90;;;;;;5152819;27;20066;-78
2022/10/15 02:34:59;;;;;;;95.07;48.33;;;12.70;99.90;;;;;;5152723;27;20050;-77
2022/10/15 02:37:28;;;;;;;135.05;57.50;;;12.70;99.90;;;;;;5134488;27;20051;-78
2022/10/15 02:39:54;;;;;;;145.27;59.28;;;12.70;99.90;;;;;;5152625;27;20050;-78
2022/10/15 02:42:20;;;;;;;151.45;59.40;;;12.70;99.90;;;;;;5116872;27;20106;-78
2022/10/15 02:44:46;;;;;;;131.57;55.40;;;12.70;99.90;;;;;;5138416;27;20047;-78
2022/10/15 02:47:13;;;;;;;124.63;54.38;;;12.70;99.90;;;;;;5137848;27;20054;-77
2022/10/15 02:49:39;;;;;;;109.88;51.10;;;12.70;99.90;;;;;;5138145;27;20078;-78
2022/10/15 02:52:05;;;;;;;137.07;58.50;;;12.70;99.90;;;;;;5138159;27;20078;-78
2022/10/15 02:54:31;;;;;;;147.25;61.60;;;12.60;99.90;;;;;;5156824;27;20043;-78
2022/10/15 02:56:57;;;;;;;145.52;58.85;;;12.60;99.90;;;;;;5138015;27;20079;-78
2022/10/15 02:59:23;;;;;;;141.93;60.78;;;12.60;99.90;;;;;;5156968;27;20101;-78
2022/10/15 03:01:49;;;;;;;173.18;68.35;;;12.60;99.90;;;;;;5138310;27;20047;-77
2022/10/15 03:04:15;;;;;;;169.75;67.25;;;12.60;99.90;;;;;;5138438;27;20047;-80
2022/10/15 03:06:41;;;;;;;190.43;69.43;;;12.60;99.90;;;;;;5156832;27;20038;-78
2022/10/15 03:09:07;;;;;;;177.98;69.28;;;12.70;99.90;;;;;;5157094;27;20119;-78
2022/10/15 03:11:33;;;;;;;174.57;70.68;;;12.70;99.90;;;;;;5157535;27;20606;-79
2022/10/15 03:13:59;;;;;;;147.48;63.33;;;12.70;99.90;;;;;;5157402;27;20146;-80
2022/10/15 03:16:25;;;;;;;152.88;65.95;;;12.70;99.90;;;;;;5138197;27;20082;-78
2022/10/15 03:18:51;;;;;;;159.32;69.07;;;12.70;99.90;;;;;;5120558;27;20047;-78
2022/10/15 03:21:17;;;;;;;186.80;71.88;;;12.70;99.90;;;;;;5137338;27;20050;-78
2022/10/15 03:23:42;;;;;;;132.48;61.10;;;12.70;99.90;;;;;;5155787;27;20054;-78
2022/10/15 03:26:08;;;;;;;149.45;62.42;;;12.70;99.90;;;;;;5136968;27;20149;-79
2022/10/15 03:28:34;;;;;;;129.30;61.30;;;12.70;99.90;;;;;;5156042;27;20046;-77
2022/10/15 03:31:00;;;;;;;143.82;64.32;;;12.70;99.90;;;;;;5137281;27;20387;-78
2022/10/15 03:33:27;;;;;;;133.93;60.58;;;12.70;99.90;;;;;;5137363;27;20322;-79
2022/10/15 03:35:53;;;;;;;132.57;61.17;;;12.70;99.90;;;;;;5156235;27;20201;-80
2022/10/15 03:38:19;;;;;;;120.13;57.45;;;12.70;99.90;;;;;;5156495;27;20166;-79
2022/10/15 03:40:45;;;;;;;132.75;60.60;;;12.70;99.90;;;;;;5154457;27;20070;-78
2022/10/15 03:43:11;;;;;;;118.10;56.38;;;12.70;99.90;;;;;;5118150;27;20379;-78
2022/10/15 03:45:37;;;;;;;113.75;54.58;;;12.70;99.90;;;;;;5154586;27;20086;-78
2022/10/15 03:48:04;;;;;;;97.10;49.30;;;12.70;99.90;;;;;;5137398;27;20108;-79
2022/10/15 03:50:30;;;;;;;108.57;51.92;;;12.70;99.90;;;;;;5155543;27;20050;-78
2022/10/15 03:52:55;;;;;;;104.88;51.15;;;12.70;99.90;;;;;;5154939;27;20066;-78
2022/10/15 03:55:21;;;;;;;111.57;53.05;;;12.70;99.90;;;;;;5136006;27;20062;-78
2022/10/15 03:57:47;;;;;;;106.68;51.08;;;12.70;99.90;;;;;;5137023;27;20494;-78
2022/10/15 04:00:14;;;;;;;98.88;50.55;;;12.70;99.90;;;;;;5135721;27;20046;-80
2022/10/15 04:02:42;;;;;;;107.13;52.47;;;12.70;99.90;;;;;;5135897;27;20107;-79
2022/10/15 04:05:08;;;;;;;98.00;50.67;;;12.70;99.90;;;;;;5154058;27;20050;-79
2022/10/15 04:07:35;;;;;;;100.70;49.85;;;12.70;99.90;;;;;;5154267;27;20073;-81
2022/10/15 04:10:01;;;;;;;101.85;49.88;;;12.60;99.90;;;;;;5136097;27;20111;-78
2022/10/15 04:12:26;;;;;;;95.20;50.22;;;12.60;99.90;;;;;;5154195;27;20061;-79
2022/10/15 04:14:52;;;;;;;96.15;50.40;;;12.60;99.90;;;;;;5154240;27;20051;-78
2022/10/15 04:17:18;;;;;;;100.95;50.88;;;12.60;99.90;;;;;;5154413;27;20089;-79
2022/10/15 04:19:45;;;;;;;104.97;50.50;;;12.60;99.90;;;;;;5135512;27;20094;-78
2022/10/15 04:22:10;;;;;;;93.28;48.65;;;12.60;99.90;;;;;;5154512;27;20049;-78
2022/10/15 04:24:37;;;;;;;99.35;49.22;;;12.60;99.90;;;;;;5153717;27;20046;-80
2022/10/15 04:27:03;;;;;;;89.22;46.67;;;12.60;99.90;;;;;;5153558;27;20055;-80
2022/10/15 04:29:29;;;;;;;108.80;49.58;;;12.60;99.90;;;;;;5134963;27;20043;-79
2022/10/15 04:31:55;;;;;;;100.75;47.42;;;12.60;99.90;;;;;;5153444;27;20107;-79
2022/10/15 04:34:21;;;;;;;92.22;45.13;;;12.60;99.90;;;;;;5153539;27;20134;-78
2022/10/15 04:36:46;;;;;;;98.47;49.55;;;12.60;99.90;;;;;;5139308;27;20093;-81
2022/10/15 04:39:12;;;;;;;96.82;47.83;;;12.60;99.90;;;;;;5122624;27;230516;-81
2022/10/15 04:41:38;;;;;;;92.00;46.35;;;12.60;99.90;;;;;;5123148;27;20047;-80
2022/10/15 04:44:04;;;;;;;98.60;48.85;;;12.60;99.90;;;;;;5136686;27;20046;-81
2022/10/15 04:46:30;;;;;;;97.68;47.45;;;12.60;99.90;;;;;;5135433;27;20054;-79
2022/10/15 04:48:57;;;;;;;101.65;48.92;;;12.50;99.90;;;;;;5118636;27;20047;-78
2022/10/15 04:51:25;;;;;;;92.70;46.50;;;12.50;99.90;;;;;;5136024;27;20047;-81
2022/10/15 04:53:51;;;;;;;101.45;50.47;;;12.50;99.90;;;;;;5154144;27;20486;-82
2022/10/15 04:56:19;;;;;;;97.18;48.58;;;12.40;99.90;;;;;;5154085;27;20138;-80
2022/10/15 04:58:47;;;;;;;93.00;45.60;;;12.40;99.90;;;;;;5135333;27;20054;-78
2022/10/15 05:01:15;;;;;;;88.88;43.92;;;12.30;99.90;;;;;;5154007;27;20106;-79
2022/10/15 05:03:44;;;;;;;104.25;48.60;;;12.30;99.90;;;;;;5135633;27;20059;-78
2022/10/15 05:06:12;;;;;;;97.55;45.72;;;12.20;99.90;;;;;;5134388;27;20058;-80
2022/10/15 05:08:42;;;;;;;98.70;45.97;;;12.20;99.90;;;;;;5153567;27;20505;-79
2022/10/15 05:11:14;;;;;;;98.90;47.35;;;12.20;99.90;;;;;;5117834;27;20050;-78
2022/10/15 05:13:41;;;;;;;101.93;46.50;;;12.10;99.90;;;;;;5134974;27;20051;-78
2022/10/15 05:16:21;;;;;;;99.88;48.42;;;12.10;99.90;;;;;;5153758;27;20047;-79
2022/10/15 05:18:49;;;;;;;101.30;49.30;;;12.10;99.90;;;;;;5153708;27;20142;-80
2022/10/15 05:21:16;;;;;;;109.30;51.97;;;12.20;99.90;;;;;;5134904;27;20406;-78
2022/10/15 05:23:43;;;;;;;107.20;49.55;;;12.20;99.90;;;;;;5134372;27;20498;-78
2022/10/15 05:26:14;;;;;;;103.85;50.20;;;12.20;99.90;;;;;;5117487;27;20058;-81
2022/10/15 05:28:41;;;;;;;102.13;48.30;;;12.20;99.90;;;;;;5135426;27;20057;-78
2022/10/15 05:31:09;;;;;;;117.60;53.45;;;12.20;99.90;;;;;;5101641;27;20154;-78
2022/10/15 05:33:35;;;;;;;115.15;51.13;;;12.20;99.90;;;;;;5153436;27;20057;-81
2022/10/15 05:36:12;;;;;;;115.07;54.03;;;12.20;99.90;;;;;;5153316;27;20046;-81
2022/10/15 05:38:39;;;;;;;113.18;54.17;;;12.20;99.90;;;;;;5153117;27;20054;-79
2022/10/15 05:41:06;;;;;;;111.70;52.33;;;12.30;99.90;;;;;;5152762;27;20050;-80
2022/10/15 05:43:31;;;;;;;98.88;49.72;;;12.30;99.90;;;;;;5134556;27;20493;-82
2022/10/15 05:45:57;;;;;;;106.03;51.03;;;12.30;99.90;;;;;;5117132;27;20046;-78
2022/10/15 05:48:23;;;;;;;101.32;51.08;;;12.30;99.90;;;;;;5117266;27;20043;-79
2022/10/15 05:50:49;;;;;;;104.57;49.90;;;12.30;99.90;;;;;;5117703;27;20110;-82
2022/10/15 05:53:15;;;;;;;105.28;49.03;;;12.30;99.90;;;;;;5135889;27;20050;-79
2022/10/15 05:55:41;;;;;;;105.40;50.65;;;12.30;99.90;;;;;;5134210;27;20130;-77
2022/10/15 05:58:07;;;;;;;109.22;53.17;;;12.30;99.90;;;;;;5152786;27;20078;-81
2022/10/15 06:00:34;;;;;;;95.95;50.45;;;12.30;99.90;;;;;;5152836;27;20050;-81
2022/10/15 06:03:00;;;;;;;121.18;52.67;;;12.30;99.90;;;;;;5153084;27;20173;-78
2022/10/15 06:05:26;;;;;;;110.88;50.88;;;12.30;99.90;;;;;;5134192;27;20081;-80
2022/10/15 06:07:52;;;;;;;108.78;53.10;;;12.40;99.90;;;;;;5152851;27;20046;-79
2022/10/15 06:10:18;;;;;;;113.85;53.53;;;12.40;99.90;;;;;;5153166;27;20042;-79
2022/10/15 06:12:53;;;;;;;110.65;51.58;;;12.40;99.90;;;;;;5152764;27;20042;-79
2022/10/15 06:15:19;;;;;;;124.85;54.47;;;12.40;99.90;;;;;;5153281;27;20133;-81
2022/10/15 06:17:45;;;;;;;112.45;54.60;;;12.40;99.90;;;;;;5152773;27;20674;-80
2022/10/15 06:20:12;;;;;;;121.88;54.22;;;12.40;99.90;;;;;;5152776;27;20049;-79
2022/10/15 06:22:38;;;;;;;115.20;53.72;;;12.40;99.90;;;;;;5152597;27;20042;-79
2022/10/15 06:25:05;;;;;;;110.93;54.53;;;12.40;99.90;;;;;;5134032;27;20060;-79
2022/10/15 06:27:32;;;;;;;128.90;55.75;;;12.40;99.90;;;;;;5133908;27;20410;-79
2022/10/15 06:29:58;;;;;;;119.65;55.90;;;12.40;99.90;;;;;;5152191;27;20043;-81
2022/10/15 06:32:24;;;;;;;117.47;53.30;;;12.40;99.90;;;;;;5152502;27;20039;-79
2022/10/15 06:34:50;;;;;;;100.50;50.40;;;12.50;99.90;;;;;;5100370;27;20113;-79
2022/10/15 06:37:16;;;;;;;114.45;52.67;;;12.50;99.90;;;;;;5152614;27;20071;-79
2022/10/15 06:39:42;;;;;;;105.95;50.88;;;12.50;99.90;;;;;;5133529;27;20181;-80
2022/10/15 06:42:08;;;;;;;109.90;53.80;;;12.50;99.90;;;;;;5152623;27;20051;-79
2022/10/15 06:44:34;;;;;;;120.47;54.60;;;12.50;99.90;;;;;;5133797;27;20053;-80
2022/10/15 06:47:00;;;;;;;115.03;52.05;;;12.50;99.90;;;;;;5152549;27;20500;-79
2022/10/15 06:49:26;;;;;;;105.90;52.08;;;12.50;99.90;;;;;;5133404;27;20045;-79
2022/10/15 06:51:52;;;;;;;103.90;51.58;;;12.50;99.90;;;;;;5152152;27;20050;-80
2022/10/15 06:54:18;;;;;;;102.38;53.25;;;12.50;99.90;;;;;;5152370;27;20529;-79
2022/10/15 06:56:44;;;;;;;106.30;50.90;;;12.50;99.90;;;;;;5151419;27;20529;-79
2022/10/15 06:59:10;;;;;;;107.45;51.75;;;12.50;99.90;;;;;;5152355;27;20494;-79
2022/10/15 07:01:36;;;;;;;97.00;49.63;;;12.50;99.90;;;;;;5152064;27;20126;-81
2022/10/15 07:04:02;;;;;;;98.90;51.65;;;12.50;99.90;;;;;;5133692;27;20161;-79
2022/10/15 07:06:28;;;;;;;108.35;51.15;;;12.50;99.90;;;;;;5151743;27;20095;-78
2022/10/15 07:08:53;;;;;;;98.72;49.50;;;12.50;99.90;;;;;;5152896;27;20050;-78
2022/10/15 07:11:20;;;;;;;95.90;51.60;;;12.50;99.90;;;;;;5138267;27;20133;-80
2022/10/15 07:13:45;;;;;;;107.70;53.25;;;12.50;99.90;;;;;;5134171;27;20046;-80
2022/10/15 07:16:13;;;;;;;111.38;52.45;;;12.50;99.90;;;;;;5154257;27;20383;-82
2022/10/15 07:18:39;;;;;;;90.95;49.42;;;12.60;99.90;;;;;;5154445;27;20062;-81
2022/10/15 07:21:07;;;;;;;108.53;53.50;;;12.60;99.90;;;;;;5135273;27;20062;-82
2022/10/15 07:23:33;;;;;;;104.55;52.42;;;12.70;99.90;;;;;;5134378;27;20050;-81
2022/10/15 07:25:59;;;;;;;116.18;55.47;;;12.80;99.90;;;;;;5116643;27;20058;-81
2022/10/15 07:28:26;;;;;;;103.07;52.90;;;12.90;99.90;;;;;;5116694;27;20578;-81
2022/10/15 07:30:52;;;;;;;94.13;50.58;;;12.90;99.90;;;;;;5120415;27;20050;-80
2022/10/15 07:33:18;;;;;;;94.10;52.55;;;12.90;99.90;;;;;;5137073;27;20047;-81
2022/10/15 07:35:44;;;;;;;107.95;53.47;;;12.90;99.90;;;;;;5120111;27;20062;-81
2022/10/15 07:38:10;;;;;;;103.75;55.10;;;12.90;99.90;;;;;;5137065;27;20054;-79
2022/10/15 07:40:36;;;;;;;93.70;50.85;;;12.90;99.90;;;;;;5133483;27;20066;-82
2022/10/15 07:43:02;;;;;;;106.32;54.47;;;12.90;99.90;;;;;;5116244;27;20062;-81
2022/10/15 07:45:28;;;;;;;105.97;57.70;;;12.90;99.90;;;;;;5134941;27;20051;-80
2022/10/15 07:47:54;;;;;;;105.50;55.72;;;12.90;99.90;;;;;;5134655;27;20051;-79
2022/10/15 07:50:21;;;;;;;107.38;55.13;;;12.90;99.90;;;;;;5133587;27;20043;-82
2022/10/15 07:52:47;;;;;;;107.68;54.80;;;12.90;99.90;;;;;;5134709;27;20054;-81
2022/10/15 07:55:13;;;;;;;113.95;57.45;;;12.90;99.90;;;;;;5134243;27;20045;-81
2022/10/15 07:57:39;;;;;;;109.30;54.47;;;12.80;99.90;;;;;;5135029;27;20456;-79
2022/10/15 08:00:06;;;;;;;109.40;54.15;;;12.90;99.90;;;;;;5133464;27;20055;-80
2022/10/15 08:02:32;;;;;;;105.88;55.78;;;12.90;99.90;;;;;;5134693;27;20047;-81
2022/10/15 08:04:58;;;;;;;112.28;57.50;;;12.90;99.90;;;;;;5134418;27;20126;-77
2022/10/15 08:07:24;;;;;;;116.10;57.78;;;13.00;99.90;;;;;;5132903;27;20130;-80
2022/10/15 08:09:50;;;;;;;118.35;57.47;;;13.00;99.90;;;;;;5133303;27;20055;-79
2022/10/15 08:12:16;;;;;;;113.22;55.72;;;13.00;99.90;;;;;;5133066;27;20051;-82
2022/10/15 08:14:42;;;;;;;102.70;53.95;;;13.00;99.90;;;;;;5134636;27;20039;-83
2022/10/15 08:17:08;;;;;;;107.50;56.00;;;13.00;99.90;;;;;;5133565;27;20051;-80
2022/10/15 08:19:34;;;;;;;114.38;55.20;;;13.00;99.90;;;;;;5135915;27;20046;-77
2022/10/15 08:22:01;;;;;;;111.68;55.05;;;13.10;99.90;;;;;;5133815;27;20059;-81
2022/10/15 08:24:29;;;;;;;112.88;53.45;;;13.10;99.90;;;;;;5134775;27;20070;-80
2022/10/15 08:26:57;;;;;;;118.60;55.85;;;13.20;99.90;;;;;;5134493;27;20047;-78
2022/10/15 08:29:23;;;;;;;119.47;55.83;;;13.20;99.90;;;;;;5134093;27;20043;-78
2022/10/15 08:31:50;;;;;;;119.43;56.65;;;13.20;99.90;;;;;;5133961;27;20055;-78
2022/10/15 08:34:16;;;;;;;114.78;55.80;;;13.20;99.90;;;;;;5132485;27;20051;-81
2022/10/15 08:36:42;;;;;;;113.22;54.00;;;13.30;99.90;;;;;;5134294;27;20043;-80
2022/10/15 08:39:08;;;;;;;109.35;51.08;;;13.30;99.90;;;;;;5137263;27;20046;-79
2022/10/15 08:41:51;;;;;;;114.97;53.78;;;13.30;99.90;;;;;;5153393;27;20486;-80
2022/10/15 08:44:32;;;;;;;98.45;47.80;;;13.30;99.90;;;;;;5137940;27;20049;-79
2022/10/15 08:47:06;;;;;;;101.68;49.03;;;13.40;99.90;;;;;;5136203;27;20057;-80
2022/10/15 08:49:48;;;;;;;106.90;49.72;;;13.40;99.90;;;;;;5154357;27;20050;-80
2022/10/15 08:52:38;;;;;;;113.90;48.92;;;13.40;99.90;;;;;;5135371;27;20473;-81
2022/10/15 08:55:04;;;;;;;93.53;47.70;;;13.40;99.90;;;;;;5154316;27;20050;-79
2022/10/15 08:57:33;;;;;;;93.80;47.08;;;13.40;99.90;;;;;;5118861;27;20054;-79
2022/10/15 09:00:13;;;;;;;99.07;49.67;;;13.40;99.90;;;;;;5154204;27;20497;-78
2022/10/15 09:03:16;;;;;;;99.25;47.97;;;13.30;99.90;;;;;;5135500;27;20047;-79
2022/10/15 09:05:55;;;;;;;90.15;45.53;;;13.30;99.90;;;;;;5135108;27;20081;-79
2022/10/15 09:08:32;;;;;;;93.18;49.08;;;13.30;99.90;;;;;;5135215;27;20084;-79
2022/10/15 09:11:27;;;;;;;88.60;46.40;;;13.30;99.90;;;;;;5135192;27;20135;-78
2022/10/15 09:13:54;;;;;;;96.45;47.78;;;13.40;99.90;;;;;;5092031;27;20054;-81
2022/10/15 09:16:34;;;;;;;81.47;42.22;;;13.50;99.90;;;;;;5154006;27;20175;-81
2022/10/15 09:19:04;;;;;;;78.70;41.33;;;13.50;99.90;;;;;;5135351;27;20043;-80
2022/10/15 09:21:34;;;;;;;80.32;44.13;;;13.60;99.90;;;;;;5135569;27;20046;-81
2022/10/15 09:24:11;;;;;;;71.57;38.08;;;13.70;99.90;;;;;;5117752;27;20042;-80
2022/10/15 09:26:52;;;;;;;70.10;37.03;;;13.70;99.90;;;;;;5153941;27;20402;-79
2022/10/15 09:29:40;;;;;;;68.03;36.53;;;13.70;99.90;;;;;;5135880;27;20054;-78
2022/10/15 09:32:17;;;;;;;67.68;35.30;;;13.70;99.90;;;;;;5155062;27;20054;-79
2022/10/15 09:34:59;;;;;;;73.55;37.63;;;13.70;99.90;;;;;;5136906;27;20095;-78
2022/10/15 09:37:59;;;;;;;68.60;35.55;;;13.70;99.90;;;;;;5155368;27;20117;-79
2022/10/15 09:40:50;;;;;;;72.47;37.22;;;13.70;99.90;;;;;;5097898;27;20052;-79
2022/10/15 09:43:29;;;;;;;69.47;36.40;;;13.60;99.90;;;;;;5118699;27;20062;-78
2022/10/15 09:45:56;;;;;;;72.45;37.47;;;13.60;99.90;;;;;;5154590;27;20050;-78
2022/10/15 09:48:24;;;;;;;68.57;37.33;;;13.70;99.90;;;;;;5135261;27;20154;-80
2022/10/15 09:51:11;;;;;;;64.40;35.35;;;13.70;99.90;;;;;;5134459;27;20089;-78
2022/10/15 09:54:11;;;;;;;63.42;36.33;;;13.80;99.90;;;;;;5134344;27;20054;-78
2022/10/15 09:56:53;;;;;;;72.50;36.60;;;13.90;99.90;;;;;;5153403;27;20055;-79
2022/10/15 09:59:21;;;;;;;63.50;36.25;;;13.90;99.90;;;;;;5153218;27;20047;-79
2022/10/15 10:01:57;;;;;;;64.68;36.20;;;13.90;99.90;;;;;;5153014;27;20047;-82
2022/10/15 10:04:29;;;;;;;61.75;36.13;;;13.90;99.90;;;;;;5117060;27;20724;-79
2022/10/15 10:07:03;;;;;;;;;;;13.90;99.90;;;;;;5152967;27;20061;-78
2022/10/15 10:09:34;;;;;;;52.63;31.23;;;13.80;99.90;;;;;;5151606;27;19946;-79
2022/10/15 10:12:06;;;;;;;55.10;31.02;;;13.90;99.90;;;;;;5134392;27;20043;-81
2022/10/15 10:14:43;;;;;;;53.47;31.50;;;13.90;99.90;;;;;;5153879;27;20501;-79
2022/10/15 10:17:19;;;;;;;54.63;32.80;;;13.90;99.90;;;;;;5152457;27;20410;-81
2022/10/15 10:20:21;;;;;;;55.30;32.75;;;13.90;99.90;;;;;;5153000;27;20096;-78
2022/10/15 10:22:59;;;;;;;54.25;31.00;;;13.90;99.90;;;;;;5048806;28;20405;-79
2022/10/15 10:25:43;;;;;;;45.80;28.13;;;13.90;99.90;;;;;;5139569;27;20064;-79
2022/10/15 10:28:10;;;;;;;45.90;27.15;;;13.90;99.90;;;;;;5152707;27;20133;-79
2022/10/15 10:30:42;;;;;;;46.97;28.60;;;14.00;99.90;;;;;;5152939;27;20046;-80
2022/10/15 10:33:14;;;;;;;50.70;29.23;;;14.00;99.90;;;;;;5152864;27;20061;-80
2022/10/15 10:35:51;;;;;;;52.65;29.45;;;14.00;99.90;;;;;;5152949;27;20051;-79
2022/10/15 10:38:26;;;;;;;38.15;23.75;;;14.10;99.90;;;;;;5152901;27;20410;-80
2022/10/15 10:40:57;;;;;;;40.00;24.02;;;14.20;99.90;;;;;;5133702;27;20062;-78
2022/10/15 10:43:27;;;;;;;45.15;24.98;;;14.20;99.90;;;;;;5133957;27;20054;-78
2022/10/15 10:45:55;;;;;;;38.08;22.55;;;14.30;99.90;;;;;;5133393;27;20696;-78
2022/10/15 10:48:42;;;;;;;42.55;26.05;;;14.30;99.90;;;;;;5152301;27;20047;-78
2022/10/15 10:51:17;;;;;;;43.45;25.45;;;14.40;99.90;;;;;;5151885;27;20047;-78
2022/10/15 10:53:56;;;;;;;41.28;24.23;;;14.50;99.90;;;;;;5117092;27;20574;-80
2022/10/15 10:56:27;;;;;;;40.45;23.77;;;14.50;99.90;;;;;;5152447;27;20131;-78
2022/10/15 10:59:09;;;;;;;42.90;23.35;;;14.40;99.90;;;;;;5116573;27;20043;-80
2022/10/15 11:01:35;;;;;;;42.05;23.92;;;14.50;99.90;;;;;;5134318;27;20058;-79
2022/10/15 11:04:02;;;;;;;44.25;23.85;;;14.40;99.90;;;;;;5134889;27;20062;-83
2022/10/15 11:06:45;;;;;;;38.20;23.55;;;14.40;99.90;;;;;;5137289;27;20043;-78
2022/10/15 11:09:38;;;;;;;36.15;22.17;;;14.40;99.90;;;;;;5156075;27;20046;-83
2022/10/15 11:12:23;;;;;;;41.05;21.80;;;14.30;99.90;;;;;;5137172;27;20050;-81
2022/10/15 11:15:12;;;;;;;42.83;23.67;;;14.30;99.90;;;;;;5155903;27;20532;-78
2022/10/15 11:18:01;;;;;;;37.28;22.05;;;14.30;99.90;;;;;;5109587;27;20118;-79
2022/10/15 11:20:51;;;;;;;40.42;22.17;;;14.30;99.90;;;;;;5137356;27;20059;-76
2022/10/15 11:23:46;;;;;;;33.38;20.45;;;14.30;99.90;;;;;;5155700;27;20043;-83
2022/10/15 11:26:15;;;;;;;39.90;23.88;;;14.30;99.90;;;;;;5119145;27;20043;-79
2022/10/15 11:28:53;;;;;;;31.23;19.63;;;14.40;99.90;;;;;;5136097;27;20042;-83
2022/10/15 11:31:52;;;;;;;33.55;20.58;;;14.50;99.90;;;;;;5155642;27;20162;-78
2022/10/15 11:34:21;;;;;;;33.50;19.70;;;14.50;99.90;;;;;;5102044;27;20047;-80
2022/10/15 11:37:04;;;;;;;27.83;16.88;;;14.60;99.90;;;;;;5155033;27;20039;-78
2022/10/15 11:39:53;;;;;;;26.83;16.40;;;14.70;99.90;;;;;;5155118;27;20103;-80
2022/10/15 11:42:32;;;;;;;26.33;16.02;;;15.00;99.90;;;;;;5155488;27;20062;-82
2022/10/15 11:45:15;;;;;;;24.02;15.18;;;15.20;99.90;;;;;;5137122;27;20398;-80
2022/10/15 11:48:10;;;;;;;23.63;15.07;;;15.30;99.90;;;;;;5118979;27;20054;-81
2022/10/15 11:50:59;;;;;;;22.50;14.82;;;15.20;99.90;;;;;;5155355;27;20054;-88
2022/10/15 11:54:08;;;;;;;23.30;14.15;;;15.30;99.90;;;;;;5137390;27;20619;-91
2022/10/15 11:56:38;;;;;;;21.38;13.65;;;15.30;99.90;;;;;;5083379;27;20506;-81
2022/10/15 11:59:38;;;;;;;22.63;13.55;;;15.40;99.90;;;;;;5154620;27;20130;-83
2022/10/15 12:02:22;;;;;;;22.38;12.70;;;15.40;99.90;;;;;;5155169;27;20053;-80
2022/10/15 12:04:55;;;;;;;18.65;11.90;;;15.50;99.90;;;;;;5154771;27;20059;-78
2022/10/15 12:07:26;;;;;;;18.33;12.48;;;15.60;99.90;;;;;;5154179;27;20039;-82
2022/10/15 12:09:56;;;;;;;18.02;11.25;;;15.70;99.90;;;;;;5154259;27;20137;-79
2022/10/15 12:12:52;;;;;;;18.73;11.93;;;15.70;99.90;;;;;;5154531;27;20043;-84
2022/10/15 12:15:27;;;;;;;15.20;10.63;;;15.70;99.90;;;;;;5135727;27;20129;-86
2022/10/15 12:18:21;;;;;;;16.88;11.65;;;15.70;99.90;;;;;;5154528;27;20122;-81
2022/10/15 12:20:48;;;;;;;19.15;11.05;;;15.70;99.90;;;;;;5154642;27;20051;-81
2022/10/15 12:23:37;;;;;;;18.55;12.82;;;15.90;99.90;;;;;;5133652;27;20141;-80
2022/10/15 12:26:23;;;;;;;16.58;10.93;;;16.40;99.90;;;;;;5136410;27;20142;-80
2022/10/15 12:28:54;;;;;;;15.15;10.20;;;16.80;99.90;;;;;;5154503;27;20046;-85
2022/10/15 12:31:20;;;;;;;13.80;9.80;;;17.10;99.90;;;;;;5154483;27;20050;-79
2022/10/15 12:33:50;;;;;;;18.30;10.98;;;17.00;99.90;;;;;;5118915;27;20054;-78
2022/10/15 12:36:31;;;;;;;17.27;10.38;;;17.00;99.90;;;;;;5154588;27;20506;-84
2022/10/15 12:38:59;;;;;;;19.92;11.02;;;16.90;99.90;;;;;;5154375;27;20176;-79
2022/10/15 12:41:39;;;;;;;14.15;10.00;;;16.90;99.90;;;;;;5136234;27;20047;-81
2022/10/15 12:44:29;;;;;;;16.92;10.02;;;16.80;99.90;;;;;;5120672;27;20043;-80
2022/10/15 12:46:56;;;;;;;14.35;9.55;;;16.90;99.90;;;;;;5155307;27;20042;-83